sensor_id;sensor_type;location;lat;lon;timestamp;temperature;humidity
1011;DHT22;494;48.744;10.106;2023-05-03T00:01:23;10.00;40.80
1011;DHT22;494;48.744;10.106;2023-05-03T00:03:52;10.00;40.80
1011;DHT22;494;48.744;10.106;2023-05-03T00:06:22;10.00;40.70
1011;DHT22;494;48.744;10.106;2023-05-03T00:08:52;10.00;40.90
1011;DHT22;494;48.744;10.106;2023-05-03T00:11:21;9.90;42.00
1011;DHT22;494;48.744;10.106;2023-05-03T00:13:58;9.90;41.30
1011;DHT22;494;48.744;10.106;2023-05-03T00:16:26;9.80;41.40
1011;DHT22;494;48.744;10.106;2023-05-03T00:18:56;9.70;41.70
1011;DHT22;494;48.744;10.106;2023-05-03T00:21:26;9.50;42.00
1011;DHT22;494;48.744;10.106;2023-05-03T00:23:57;9.30;42.40
1011;DHT22;494;48.744;10.106;2023-05-03T00:26:27;9.20;42.90
1011;DHT22;494;48.744;10.106;2023-05-03T00:28:56;9.20;43.10
1011;DHT22;494;48.744;10.106;2023-05-03T00:31:24;9.20;43.50
1011;DHT22;494;48.744;10.106;2023-05-03T00:33:53;9.20;43.50
1011;DHT22;494;48.744;10.106;2023-05-03T00:36:23;9.10;43.50
1011;DHT22;494;48.744;10.106;2023-05-03T00:38:53;9.10;43.60
1011;DHT22;494;48.744;10.106;2023-05-03T00:41:22;9.00;43.50
1011;DHT22;494;48.744;10.106;2023-05-03T00:43:52;8.90;43.90
1011;DHT22;494;48.744;10.106;2023-05-03T00:46:20;8.90;43.70
1011;DHT22;494;48.744;10.106;2023-05-03T00:48:49;8.80;43.70
1011;DHT22;494;48.744;10.106;2023-05-03T00:51:19;8.80;44.10
1011;DHT22;494;48.744;10.106;2023-05-03T00:53:50;8.80;44.00
1011;DHT22;494;48.744;10.106;2023-05-03T00:56:20;8.80;43.70
1011;DHT22;494;48.744;10.106;2023-05-03T00:58:50;8.70;43.50
1011;DHT22;494;48.744;10.106;2023-05-03T01:01:20;8.50;44.00
1011;DHT22;494;48.744;10.106;2023-05-03T01:03:49;8.40;44.50
1011;DHT22;494;48.744;10.106;2023-05-03T01:06:27;8.30;45.20
1011;DHT22;494;48.744;10.106;2023-05-03T01:09:05;8.30;45.10
1011;DHT22;494;48.744;10.106;2023-05-03T01:11:47;8.30;45.20
1011;DHT22;494;48.744;10.106;2023-05-03T01:14:31;8.30;45.00
1011;DHT22;494;48.744;10.106;2023-05-03T01:17:09;8.30;45.00
1011;DHT22;494;48.744;10.106;2023-05-03T01:19:43;8.20;45.40
1011;DHT22;494;48.744;10.106;2023-05-03T01:22:20;8.00;46.50
1011;DHT22;494;48.744;10.106;2023-05-03T01:25:01;7.90;47.10
1011;DHT22;494;48.744;10.106;2023-05-03T01:27:35;8.00;47.30
1011;DHT22;494;48.744;10.106;2023-05-03T01:30:06;8.10;47.50
1011;DHT22;494;48.744;10.106;2023-05-03T01:32:45;8.10;47.40
1011;DHT22;494;48.744;10.106;2023-05-03T01:35:27;8.10;47.40
1011;DHT22;494;48.744;10.106;2023-05-03T01:38:16;8.10;46.60
1011;DHT22;494;48.744;10.106;2023-05-03T01:40:59;8.20;45.90
1011;DHT22;494;48.744;10.106;2023-05-03T01:43:33;8.20;45.80
1011;DHT22;494;48.744;10.106;2023-05-03T01:46:03;8.30;45.70
1011;DHT22;494;48.744;10.106;2023-05-03T01:48:32;8.40;45.70
1011;DHT22;494;48.744;10.106;2023-05-03T01:51:01;8.40;45.60
1011;DHT22;494;48.744;10.106;2023-05-03T01:53:29;8.40;44.90
1011;DHT22;494;48.744;10.106;2023-05-03T01:56:00;8.40;45.20
1011;DHT22;494;48.744;10.106;2023-05-03T01:58:29;8.40;45.20
1011;DHT22;494;48.744;10.106;2023-05-03T02:00:57;8.30;45.30
1011;DHT22;494;48.744;10.106;2023-05-03T02:03:26;8.20;45.70
1011;DHT22;494;48.744;10.106;2023-05-03T02:05:55;8.20;45.90
1011;DHT22;494;48.744;10.106;2023-05-03T02:08:24;8.20;47.30
1011;DHT22;494;48.744;10.106;2023-05-03T02:10:53;8.40;46.80
1011;DHT22;494;48.744;10.106;2023-05-03T02:13:23;8.40;46.70
1011;DHT22;494;48.744;10.106;2023-05-03T02:15:52;8.40;46.50
1011;DHT22;494;48.744;10.106;2023-05-03T02:18:21;8.50;46.10
1011;DHT22;494;48.744;10.106;2023-05-03T02:20:52;8.60;45.50
1011;DHT22;494;48.744;10.106;2023-05-03T02:23:21;8.70;45.10
1011;DHT22;494;48.744;10.106;2023-05-03T02:25:50;8.70;44.10
1011;DHT22;494;48.744;10.106;2023-05-03T02:28:18;8.50;44.20
1011;DHT22;494;48.744;10.106;2023-05-03T02:30:49;8.50;44.80
1011;DHT22;494;48.744;10.106;2023-05-03T02:33:18;8.40;44.70
1011;DHT22;494;48.744;10.106;2023-05-03T02:35:47;8.50;44.60
1011;DHT22;494;48.744;10.106;2023-05-03T02:38:16;8.50;44.40
1011;DHT22;494;48.744;10.106;2023-05-03T02:40:45;8.60;44.20
1011;DHT22;494;48.744;10.106;2023-05-03T02:43:13;8.60;43.90
1011;DHT22;494;48.744;10.106;2023-05-03T02:45:43;8.60;43.50
1011;DHT22;494;48.744;10.106;2023-05-03T02:48:14;8.60;43.30
1011;DHT22;494;48.744;10.106;2023-05-03T02:50:43;8.60;42.90
1011;DHT22;494;48.744;10.106;2023-05-03T02:53:12;8.40;42.80
1011;DHT22;494;48.744;10.106;2023-05-03T02:55:42;8.40;42.60
1011;DHT22;494;48.744;10.106;2023-05-03T02:58:11;8.20;43.20
1011;DHT22;494;48.744;10.106;2023-05-03T03:00:40;8.10;43.50
1011;DHT22;494;48.744;10.106;2023-05-03T03:03:09;8.10;43.70
1011;DHT22;494;48.744;10.106;2023-05-03T03:05:39;8.20;43.40
1011;DHT22;494;48.744;10.106;2023-05-03T03:08:08;8.20;43.10
1011;DHT22;494;48.744;10.106;2023-05-03T03:10:37;8.20;43.00
1011;DHT22;494;48.744;10.106;2023-05-03T03:13:05;8.20;42.90
1011;DHT22;494;48.744;10.106;2023-05-03T03:15:34;8.20;42.70
1011;DHT22;494;48.744;10.106;2023-05-03T03:18:03;8.20;42.70
1011;DHT22;494;48.744;10.106;2023-05-03T03:20:33;8.30;42.70
1011;DHT22;494;48.744;10.106;2023-05-03T03:23:04;8.30;42.70
1011;DHT22;494;48.744;10.106;2023-05-03T03:25:33;8.40;42.50
1011;DHT22;494;48.744;10.106;2023-05-03T03:28:03;8.40;42.10
1011;DHT22;494;48.744;10.106;2023-05-03T03:30:32;8.50;42.30
1011;DHT22;494;48.744;10.106;2023-05-03T03:33:01;8.50;42.20
1011;DHT22;494;48.744;10.106;2023-05-03T03:35:30;8.50;42.00
1011;DHT22;494;48.744;10.106;2023-05-03T03:37:59;8.50;42.00
1011;DHT22;494;48.744;10.106;2023-05-03T03:40:29;8.60;42.00
1011;DHT22;494;48.744;10.106;2023-05-03T03:42:58;8.70;42.00
1011;DHT22;494;48.744;10.106;2023-05-03T03:45:27;8.70;41.70
1011;DHT22;494;48.744;10.106;2023-05-03T03:47:56;8.70;41.30
1011;DHT22;494;48.744;10.106;2023-05-03T03:50:25;8.70;41.10
1011;DHT22;494;48.744;10.106;2023-05-03T03:52:54;8.70;41.00
1011;DHT22;494;48.744;10.106;2023-05-03T03:55:23;8.60;40.90
1011;DHT22;494;48.744;10.106;2023-05-03T03:57:53;8.60;40.60
1011;DHT22;494;48.744;10.106;2023-05-03T04:00:22;8.60;40.80
1011;DHT22;494;48.744;10.106;2023-05-03T04:02:51;8.60;40.80
1011;DHT22;494;48.744;10.106;2023-05-03T04:05:21;8.50;41.00
1011;DHT22;494;48.744;10.106;2023-05-03T04:07:50;8.50;40.70
1011;DHT22;494;48.744;10.106;2023-05-03T04:10:18;8.50;40.60
1011;DHT22;494;48.744;10.106;2023-05-03T04:12:47;8.50;40.30
1011;DHT22;494;48.744;10.106;2023-05-03T04:15:18;8.50;40.00
1011;DHT22;494;48.744;10.106;2023-05-03T04:17:46;8.50;40.20
1011;DHT22;494;48.744;10.106;2023-05-03T04:20:16;8.50;40.20
1011;DHT22;494;48.744;10.106;2023-05-03T04:22:45;8.50;40.00
1011;DHT22;494;48.744;10.106;2023-05-03T04:25:14;8.50;40.10
1011;DHT22;494;48.744;10.106;2023-05-03T04:27:44;8.60;40.10
1011;DHT22;494;48.744;10.106;2023-05-03T04:30:13;8.60;40.00
1011;DHT22;494;48.744;10.106;2023-05-03T04:32:45;8.70;39.90
1011;DHT22;494;48.744;10.106;2023-05-03T04:35:14;8.70;39.90
1011;DHT22;494;48.744;10.106;2023-05-03T04:37:43;8.70;39.80
1011;DHT22;494;48.744;10.106;2023-05-03T04:40:14;8.70;39.70
1011;DHT22;494;48.744;10.106;2023-05-03T04:42:43;8.70;39.50
1011;DHT22;494;48.744;10.106;2023-05-03T04:45:11;8.70;39.30
1011;DHT22;494;48.744;10.106;2023-05-03T04:47:40;8.60;39.00
1011;DHT22;494;48.744;10.106;2023-05-03T04:50:13;8.60;38.90
1011;DHT22;494;48.744;10.106;2023-05-03T04:52:52;8.60;39.30
1011;DHT22;494;48.744;10.106;2023-05-03T04:55:22;8.50;39.20
1011;DHT22;494;48.744;10.106;2023-05-03T04:57:51;8.50;39.50
1011;DHT22;494;48.744;10.106;2023-05-03T05:00:21;8.40;39.80
1011;DHT22;494;48.744;10.106;2023-05-03T05:02:51;8.40;40.20
1011;DHT22;494;48.744;10.106;2023-05-03T05:05:22;8.50;40.80
1011;DHT22;494;48.744;10.106;2023-05-03T05:07:51;8.50;40.60
1011;DHT22;494;48.744;10.106;2023-05-03T05:10:19;8.70;40.70
1011;DHT22;494;48.744;10.106;2023-05-03T05:12:48;8.70;40.90
1011;DHT22;494;48.744;10.106;2023-05-03T05:15:19;8.90;41.10
1011;DHT22;494;48.744;10.106;2023-05-03T05:17:48;9.10;41.20
1011;DHT22;494;48.744;10.106;2023-05-03T05:20:17;9.30;41.70
1011;DHT22;494;48.744;10.106;2023-05-03T05:22:47;9.40;40.60
1011;DHT22;494;48.744;10.106;2023-05-03T05:25:16;9.60;40.70
1011;DHT22;494;48.744;10.106;2023-05-03T05:27:45;9.80;40.60
1011;DHT22;494;48.744;10.106;2023-05-03T05:30:14;10.10;40.50
1011;DHT22;494;48.744;10.106;2023-05-03T05:32:42;10.20;40.20
1011;DHT22;494;48.744;10.106;2023-05-03T05:35:11;10.30;40.00
1011;DHT22;494;48.744;10.106;2023-05-03T05:37:43;10.50;39.40
1011;DHT22;494;48.744;10.106;2023-05-03T05:40:14;10.70;39.10
1011;DHT22;494;48.744;10.106;2023-05-03T05:42:43;10.80;38.70
1011;DHT22;494;48.744;10.106;2023-05-03T05:45:12;11.00;38.30
1011;DHT22;494;48.744;10.106;2023-05-03T05:47:41;11.20;37.80
1011;DHT22;494;48.744;10.106;2023-05-03T05:50:10;11.30;37.30
1011;DHT22;494;48.744;10.106;2023-05-03T05:52:44;11.50;37.30
1011;DHT22;494;48.744;10.106;2023-05-03T05:55:14;11.60;36.80
1011;DHT22;494;48.744;10.106;2023-05-03T05:57:43;11.70;36.60
1011;DHT22;494;48.744;10.106;2023-05-03T06:00:13;11.80;36.50
1011;DHT22;494;48.744;10.106;2023-05-03T06:02:45;12.00;36.70
1011;DHT22;494;48.744;10.106;2023-05-03T06:05:15;12.10;36.50
1011;DHT22;494;48.744;10.106;2023-05-03T06:07:47;12.30;36.50
1011;DHT22;494;48.744;10.106;2023-05-03T06:10:18;12.40;36.40
1011;DHT22;494;48.744;10.106;2023-05-03T06:12:46;12.50;36.20
1011;DHT22;494;48.744;10.106;2023-05-03T06:15:15;12.60;35.60
1011;DHT22;494;48.744;10.106;2023-05-03T06:17:47;12.70;35.50
1011;DHT22;494;48.744;10.106;2023-05-03T06:20:16;12.80;35.10
1011;DHT22;494;48.744;10.106;2023-05-03T06:22:45;12.90;34.70
1011;DHT22;494;48.744;10.106;2023-05-03T06:25:17;13.00;34.70
1011;DHT22;494;48.744;10.106;2023-05-03T06:27:46;13.00;34.60
1011;DHT22;494;48.744;10.106;2023-05-03T06:30:15;12.90;34.30
1011;DHT22;494;48.744;10.106;2023-05-03T06:32:47;12.80;35.00
1011;DHT22;494;48.744;10.106;2023-05-03T06:35:16;12.90;35.20
1011;DHT22;494;48.744;10.106;2023-05-03T06:37:45;12.90;35.20
1011;DHT22;494;48.744;10.106;2023-05-03T06:40:15;12.90;35.50
1011;DHT22;494;48.744;10.106;2023-05-03T06:42:45;12.90;34.90
1011;DHT22;494;48.744;10.106;2023-05-03T06:45:14;12.90;36.20
1011;DHT22;494;48.744;10.106;2023-05-03T06:47:44;13.00;35.60
1011;DHT22;494;48.744;10.106;2023-05-03T06:50:13;13.00;35.30
1011;DHT22;494;48.744;10.106;2023-05-03T06:52:42;13.10;34.90
1011;DHT22;494;48.744;10.106;2023-05-03T06:55:11;13.10;35.20
1011;DHT22;494;48.744;10.106;2023-05-03T06:57:42;13.10;34.80
1011;DHT22;494;48.744;10.106;2023-05-03T07:00:14;13.00;35.40
1011;DHT22;494;48.744;10.106;2023-05-03T07:02:43;12.90;36.30
1011;DHT22;494;48.744;10.106;2023-05-03T07:05:12;13.00;36.10
1011;DHT22;494;48.744;10.106;2023-05-03T07:07:41;13.20;36.20
1011;DHT22;494;48.744;10.106;2023-05-03T07:10:10;13.20;34.90
1011;DHT22;494;48.744;10.106;2023-05-03T07:12:39;13.10;35.10
1011;DHT22;494;48.744;10.106;2023-05-03T07:15:10;13.10;35.10
1011;DHT22;494;48.744;10.106;2023-05-03T07:17:40;13.20;35.20
1011;DHT22;494;48.744;10.106;2023-05-03T07:20:10;13.30;34.70
1011;DHT22;494;48.744;10.106;2023-05-03T07:22:40;13.50;34.40
1011;DHT22;494;48.744;10.106;2023-05-03T07:25:09;13.60;34.00
1011;DHT22;494;48.744;10.106;2023-05-03T07:27:38;13.80;34.40
1011;DHT22;494;48.744;10.106;2023-05-03T07:30:09;14.00;33.50
1011;DHT22;494;48.744;10.106;2023-05-03T07:32:39;14.20;32.90
1011;DHT22;494;48.744;10.106;2023-05-03T07:35:08;14.50;31.30
1011;DHT22;494;48.744;10.106;2023-05-03T07:37:37;14.50;31.10
1011;DHT22;494;48.744;10.106;2023-05-03T07:40:07;14.50;30.60
1011;DHT22;494;48.744;10.106;2023-05-03T07:42:38;14.60;30.80
1011;DHT22;494;48.744;10.106;2023-05-03T07:45:09;14.60;30.70
1011;DHT22;494;48.744;10.106;2023-05-03T07:47:38;14.70;30.90
1011;DHT22;494;48.744;10.106;2023-05-03T07:50:07;14.80;30.00
1011;DHT22;494;48.744;10.106;2023-05-03T07:52:56;14.90;30.00
1011;DHT22;494;48.744;10.106;2023-05-03T07:55:59;15.00;29.30
1011;DHT22;494;48.744;10.106;2023-05-03T07:58:41;14.90;30.10
1011;DHT22;494;48.744;10.106;2023-05-03T08:01:27;15.00;29.60
1011;DHT22;494;48.744;10.106;2023-05-03T08:03:56;15.20;29.40
1011;DHT22;494;48.744;10.106;2023-05-03T08:06:25;15.40;28.80
1011;DHT22;494;48.744;10.106;2023-05-03T08:08:56;15.40;28.10
1011;DHT22;494;48.744;10.106;2023-05-03T08:11:26;15.60;27.30
1011;DHT22;494;48.744;10.106;2023-05-03T08:13:55;15.70;27.10
1011;DHT22;494;48.744;10.106;2023-05-03T08:16:23;15.80;26.30
1011;DHT22;494;48.744;10.106;2023-05-03T08:18:54;15.90;25.70
1011;DHT22;494;48.744;10.106;2023-05-03T08:21:23;16.00;25.60
1011;DHT22;494;48.744;10.106;2023-05-03T08:23:55;16.00;25.20
1011;DHT22;494;48.744;10.106;2023-05-03T08:26:24;16.00;25.50
1011;DHT22;494;48.744;10.106;2023-05-03T08:28:54;16.00;25.40
1011;DHT22;494;48.744;10.106;2023-05-03T08:31:23;16.10;24.80
1011;DHT22;494;48.744;10.106;2023-05-03T08:33:54;16.10;24.70
1011;DHT22;494;48.744;10.106;2023-05-03T08:36:23;16.10;25.00
1011;DHT22;494;48.744;10.106;2023-05-03T08:38:52;16.10;24.50
1011;DHT22;494;48.744;10.106;2023-05-03T08:41:21;16.10;24.60
1011;DHT22;494;48.744;10.106;2023-05-03T08:43:58;16.20;24.20
1011;DHT22;494;48.744;10.106;2023-05-03T08:46:28;16.20;24.60
1011;DHT22;494;48.744;10.106;2023-05-03T08:48:58;16.30;25.00
1011;DHT22;494;48.744;10.106;2023-05-03T08:51:27;16.40;25.00
1011;DHT22;494;48.744;10.106;2023-05-03T08:53:56;16.60;23.90
1011;DHT22;494;48.744;10.106;2023-05-03T08:56:28;16.70;23.00
1011;DHT22;494;48.744;10.106;2023-05-03T08:59:00;16.80;23.00
1011;DHT22;494;48.744;10.106;2023-05-03T09:01:35;16.90;22.80
1011;DHT22;494;48.744;10.106;2023-05-03T09:04:05;17.10;22.00
1011;DHT22;494;48.744;10.106;2023-05-03T09:06:35;17.10;21.90
1011;DHT22;494;48.744;10.106;2023-05-03T09:09:06;17.20;21.60
1011;DHT22;494;48.744;10.106;2023-05-03T09:11:37;17.40;21.30
1011;DHT22;494;48.744;10.106;2023-05-03T09:14:08;17.60;20.80
1011;DHT22;494;48.744;10.106;2023-05-03T09:16:38;17.80;20.50
1011;DHT22;494;48.744;10.106;2023-05-03T09:19:13;18.00;19.50
1011;DHT22;494;48.744;10.106;2023-05-03T09:21:44;18.20;18.90
1011;DHT22;494;48.744;10.106;2023-05-03T09:24:15;18.10;19.10
1011;DHT22;494;48.744;10.106;2023-05-03T09:26:48;18.20;18.90
1011;DHT22;494;48.744;10.106;2023-05-03T09:29:27;18.50;18.60
1011;DHT22;494;48.744;10.106;2023-05-03T09:31:57;18.70;17.80
1011;DHT22;494;48.744;10.106;2023-05-03T09:34:28;19.00;17.40
1011;DHT22;494;48.744;10.106;2023-05-03T09:36:57;19.40;16.40
1011;DHT22;494;48.744;10.106;2023-05-03T09:39:26;19.50;16.10
1011;DHT22;494;48.744;10.106;2023-05-03T09:41:55;19.40;17.20
1011;DHT22;494;48.744;10.106;2023-05-03T09:44:40;19.50;17.80
1011;DHT22;494;48.744;10.106;2023-05-03T09:47:10;19.50;16.20
1011;DHT22;494;48.744;10.106;2023-05-03T09:49:41;19.60;16.50
1011;DHT22;494;48.744;10.106;2023-05-03T09:52:10;19.80;16.90
1011;DHT22;494;48.744;10.106;2023-05-03T09:54:41;20.00;15.70
1011;DHT22;494;48.744;10.106;2023-05-03T09:57:11;20.00;15.70
1011;DHT22;494;48.744;10.106;2023-05-03T09:59:40;20.20;15.40
1011;DHT22;494;48.744;10.106;2023-05-03T10:02:14;20.40;14.80
1011;DHT22;494;48.744;10.106;2023-05-03T10:04:49;20.30;14.80
1011;DHT22;494;48.744;10.106;2023-05-03T10:07:21;20.00;15.60
1011;DHT22;494;48.744;10.106;2023-05-03T10:09:53;19.90;15.50
1011;DHT22;494;48.744;10.106;2023-05-03T10:12:23;19.70;15.90
1011;DHT22;494;48.744;10.106;2023-05-03T10:14:54;19.40;17.00
1011;DHT22;494;48.744;10.106;2023-05-03T10:17:28;19.20;16.80
1011;DHT22;494;48.744;10.106;2023-05-03T10:20:23;19.30;16.60
1011;DHT22;494;48.744;10.106;2023-05-03T10:23:12;19.10;16.50
1011;DHT22;494;48.744;10.106;2023-05-03T10:26:11;19.20;17.10
1011;DHT22;494;48.744;10.106;2023-05-03T10:28:41;19.30;16.60
1011;DHT22;494;48.744;10.106;2023-05-03T10:31:45;19.40;17.00
1011;DHT22;494;48.744;10.106;2023-05-03T10:34:41;19.90;15.80
1011;DHT22;494;48.744;10.106;2023-05-03T10:37:48;20.40;14.50
1011;DHT22;494;48.744;10.106;2023-05-03T10:40:18;20.20;14.50
1011;DHT22;494;48.744;10.106;2023-05-03T10:42:50;19.90;14.90
1011;DHT22;494;48.744;10.106;2023-05-03T10:45:24;19.80;14.80
1011;DHT22;494;48.744;10.106;2023-05-03T10:48:14;19.80;15.40
1011;DHT22;494;48.744;10.106;2023-05-03T10:50:46;20.10;14.70
1011;DHT22;494;48.744;10.106;2023-05-03T10:53:37;20.40;13.70
1011;DHT22;494;48.744;10.106;2023-05-03T10:56:08;20.70;12.50
1011;DHT22;494;48.744;10.106;2023-05-03T10:58:42;20.90;12.80
1011;DHT22;494;48.744;10.106;2023-05-03T11:01:14;20.90;13.20
1011;DHT22;494;48.744;10.106;2023-05-03T11:03:57;20.90;12.90
1011;DHT22;494;48.744;10.106;2023-05-03T11:06:33;20.90;12.30
1011;DHT22;494;48.744;10.106;2023-05-03T11:09:05;20.60;12.30
1011;DHT22;494;48.744;10.106;2023-05-03T11:11:37;20.40;11.90
1011;DHT22;494;48.744;10.106;2023-05-03T11:14:07;20.30;11.70
1011;DHT22;494;48.744;10.106;2023-05-03T11:16:38;20.40;13.30
1011;DHT22;494;48.744;10.106;2023-05-03T11:19:14;20.80;11.90
1011;DHT22;494;48.744;10.106;2023-05-03T11:21:43;21.40;11.30
1011;DHT22;494;48.744;10.106;2023-05-03T11:24:15;22.00;9.00
1011;DHT22;494;48.744;10.106;2023-05-03T11:26:44;22.20;9.20
1011;DHT22;494;48.744;10.106;2023-05-03T11:29:13;22.20;9.50
1011;DHT22;494;48.744;10.106;2023-05-03T11:31:43;21.90;7.90
1011;DHT22;494;48.744;10.106;2023-05-03T11:34:13;21.70;8.40
1011;DHT22;494;48.744;10.106;2023-05-03T11:36:42;21.50;9.30
1011;DHT22;494;48.744;10.106;2023-05-03T11:39:11;21.30;10.70
1011;DHT22;494;48.744;10.106;2023-05-03T11:41:44;21.40;9.10
1011;DHT22;494;48.744;10.106;2023-05-03T11:44:28;21.50;9.40
1011;DHT22;494;48.744;10.106;2023-05-03T11:46:57;21.60;8.80
1011;DHT22;494;48.744;10.106;2023-05-03T11:49:26;21.40;9.00
1011;DHT22;494;48.744;10.106;2023-05-03T11:51:58;21.40;10.00
1011;DHT22;494;48.744;10.106;2023-05-03T11:54:27;21.10;10.20
1011;DHT22;494;48.744;10.106;2023-05-03T11:56:58;21.10;11.30
1011;DHT22;494;48.744;10.106;2023-05-03T11:59:38;21.60;10.60
1011;DHT22;494;48.744;10.106;2023-05-03T12:02:10;22.00;9.20
1011;DHT22;494;48.744;10.106;2023-05-03T12:04:42;22.60;7.50
1011;DHT22;494;48.744;10.106;2023-05-03T12:07:12;22.80;7.40
1011;DHT22;494;48.744;10.106;2023-05-03T12:09:49;22.90;7.20
1011;DHT22;494;48.744;10.106;2023-05-03T12:12:40;22.70;7.30
1011;DHT22;494;48.744;10.106;2023-05-03T12:15:30;22.40;7.30
1011;DHT22;494;48.744;10.106;2023-05-03T12:18:05;22.20;7.60
1011;DHT22;494;48.744;10.106;2023-05-03T12:20:55;22.00;7.60
1011;DHT22;494;48.744;10.106;2023-05-03T12:23:29;21.90;7.10
1011;DHT22;494;48.744;10.106;2023-05-03T12:26:00;21.80;8.30
1011;DHT22;494;48.744;10.106;2023-05-03T12:28:32;21.80;7.50
1011;DHT22;494;48.744;10.106;2023-05-03T12:31:03;22.00;6.40
1011;DHT22;494;48.744;10.106;2023-05-03T12:33:32;22.60;6.30
1011;DHT22;494;48.744;10.106;2023-05-03T12:36:05;23.10;6.60
1011;DHT22;494;48.744;10.106;2023-05-03T12:38:35;23.40;5.30
1011;DHT22;494;48.744;10.106;2023-05-03T12:41:09;23.80;4.10
1011;DHT22;494;48.744;10.106;2023-05-03T12:43:50;24.10;4.70
1011;DHT22;494;48.744;10.106;2023-05-03T12:46:20;24.50;3.90
1011;DHT22;494;48.744;10.106;2023-05-03T12:49:00;24.90;2.50
1011;DHT22;494;48.744;10.106;2023-05-03T12:51:33;25.30;3.00
1011;DHT22;494;48.744;10.106;2023-05-03T12:54:02;25.50;1.80
1011;DHT22;494;48.744;10.106;2023-05-03T12:56:36;25.60;2.00
1011;DHT22;494;48.744;10.106;2023-05-03T12:59:08;25.60;1.90
1011;DHT22;494;48.744;10.106;2023-05-03T13:01:58;25.20;1.90
1011;DHT22;494;48.744;10.106;2023-05-03T13:04:47;24.60;3.00
1011;DHT22;494;48.744;10.106;2023-05-03T13:07:26;24.20;3.80
1011;DHT22;494;48.744;10.106;2023-05-03T13:10:02;24.50;2.80
1011;DHT22;494;48.744;10.106;2023-05-03T13:12:34;24.70;2.10
1011;DHT22;494;48.744;10.106;2023-05-03T13:15:07;24.50;3.10
1011;DHT22;494;48.744;10.106;2023-05-03T13:17:37;24.00;3.50
1011;DHT22;494;48.744;10.106;2023-05-03T13:20:07;23.70;4.50
1011;DHT22;494;48.744;10.106;2023-05-03T13:22:39;24.00;4.40
1011;DHT22;494;48.744;10.106;2023-05-03T13:25:08;24.40;3.60
1011;DHT22;494;48.744;10.106;2023-05-03T13:27:36;25.00;2.70
1011;DHT22;494;48.744;10.106;2023-05-03T13:30:08;25.60;2.00
1011;DHT22;494;48.744;10.106;2023-05-03T13:32:38;26.10;1.00
1011;DHT22;494;48.744;10.106;2023-05-03T13:35:08;26.70;1.00
1011;DHT22;494;48.744;10.106;2023-05-03T13:37:37;27.10;1.00
1011;DHT22;494;48.744;10.106;2023-05-03T13:40:07;27.50;1.00
1011;DHT22;494;48.744;10.106;2023-05-03T13:42:37;27.10;1.00
1011;DHT22;494;48.744;10.106;2023-05-03T13:45:09;27.00;1.00
1011;DHT22;494;48.744;10.106;2023-05-03T13:47:39;26.80;1.00
1011;DHT22;494;48.744;10.106;2023-05-03T13:50:28;26.10;1.00
1011;DHT22;494;48.744;10.106;2023-05-03T13:53:01;25.50;1.10
1011;DHT22;494;48.744;10.106;2023-05-03T13:55:30;25.00;2.20
1011;DHT22;494;48.744;10.106;2023-05-03T13:57:59;24.60;2.50
1011;DHT22;494;48.744;10.106;2023-05-03T14:00:29;24.30;3.60
1011;DHT22;494;48.744;10.106;2023-05-03T14:02:58;24.60;2.90
1011;DHT22;494;48.744;10.106;2023-05-03T14:05:27;25.30;1.80
1011;DHT22;494;48.744;10.106;2023-05-03T14:07:57;26.00;1.40
1011;DHT22;494;48.744;10.106;2023-05-03T14:10:26;26.40;1.20
1011;DHT22;494;48.744;10.106;2023-05-03T14:12:55;26.80;1.00
1011;DHT22;494;48.744;10.106;2023-05-03T14:15:24;26.90;1.00
1011;DHT22;494;48.744;10.106;2023-05-03T14:17:54;26.60;1.00
1011;DHT22;494;48.744;10.106;2023-05-03T14:20:28;26.10;1.00
1011;DHT22;494;48.744;10.106;2023-05-03T14:22:58;25.50;1.00
1011;DHT22;494;48.744;10.106;2023-05-03T14:25:26;24.90;1.50
1011;DHT22;494;48.744;10.106;2023-05-03T14:27:55;25.00;2.60
1011;DHT22;494;48.744;10.106;2023-05-03T14:30:24;25.40;1.50
1011;DHT22;494;48.744;10.106;2023-05-03T14:32:54;25.10;1.50
1011;DHT22;494;48.744;10.106;2023-05-03T14:35:24;25.10;3.50
1011;DHT22;494;48.744;10.106;2023-05-03T14:37:53;25.60;1.00
1011;DHT22;494;48.744;10.106;2023-05-03T14:40:22;25.30;1.20
1011;DHT22;494;48.744;10.106;2023-05-03T14:42:53;24.70;1.60
1011;DHT22;494;48.744;10.106;2023-05-03T14:45:21;24.70;2.50
1011;DHT22;494;48.744;10.106;2023-05-03T14:47:50;25.20;1.60
1011;DHT22;494;48.744;10.106;2023-05-03T14:50:20;26.10;1.30
1011;DHT22;494;48.744;10.106;2023-05-03T14:52:49;26.60;1.00
1011;DHT22;494;48.744;10.106;2023-05-03T14:55:18;27.00;1.00
1011;DHT22;494;48.744;10.106;2023-05-03T14:57:46;26.60;1.00
1011;DHT22;494;48.744;10.106;2023-05-03T15:00:15;25.70;1.10
1011;DHT22;494;48.744;10.106;2023-05-03T15:02:46;24.80;2.00
1011;DHT22;494;48.744;10.106;2023-05-03T15:05:20;24.20;3.00
1011;DHT22;494;48.744;10.106;2023-05-03T15:07:49;23.60;3.90
1011;DHT22;494;48.744;10.106;2023-05-03T15:10:18;23.30;4.40
1011;DHT22;494;48.744;10.106;2023-05-03T15:12:47;23.40;3.70
1011;DHT22;494;48.744;10.106;2023-05-03T15:15:15;24.00;3.20
1011;DHT22;494;48.744;10.106;2023-05-03T15:17:44;24.80;2.00
1011;DHT22;494;48.744;10.106;2023-05-03T15:20:13;25.50;1.40
1011;DHT22;494;48.744;10.106;2023-05-03T15:22:44;25.70;1.00
1011;DHT22;494;48.744;10.106;2023-05-03T15:25:12;25.60;1.90
1011;DHT22;494;48.744;10.106;2023-05-03T15:27:41;25.00;2.10
1011;DHT22;494;48.744;10.106;2023-05-03T15:30:10;24.40;3.40
1011;DHT22;494;48.744;10.106;2023-05-03T15:32:41;23.90;4.30
1011;DHT22;494;48.744;10.106;2023-05-03T15:35:09;23.50;4.80
1011;DHT22;494;48.744;10.106;2023-05-03T15:37:41;23.10;5.50
1011;DHT22;494;48.744;10.106;2023-05-03T15:40:13;23.00;5.60
1011;DHT22;494;48.744;10.106;2023-05-03T15:42:42;23.20;5.70
1011;DHT22;494;48.744;10.106;2023-05-03T15:45:11;23.50;5.40
1011;DHT22;494;48.744;10.106;2023-05-03T15:47:39;23.70;4.30
1011;DHT22;494;48.744;10.106;2023-05-03T15:50:09;24.20;3.50
1011;DHT22;494;48.744;10.106;2023-05-03T15:52:39;24.60;3.10
1011;DHT22;494;48.744;10.106;2023-05-03T15:55:08;24.90;2.60
1011;DHT22;494;48.744;10.106;2023-05-03T15:57:39;25.50;1.50
1011;DHT22;494;48.744;10.106;2023-05-03T16:00:14;26.00;1.30
1011;DHT22;494;48.744;10.106;2023-05-03T16:02:47;26.20;1.00
1011;DHT22;494;48.744;10.106;2023-05-03T16:05:16;26.30;1.00
1011;DHT22;494;48.744;10.106;2023-05-03T16:07:47;26.40;1.00
1011;DHT22;494;48.744;10.106;2023-05-03T16:10:18;26.20;1.40
1011;DHT22;494;48.744;10.106;2023-05-03T16:12:52;25.60;2.20
1011;DHT22;494;48.744;10.106;2023-05-03T16:15:24;25.00;2.60
1011;DHT22;494;48.744;10.106;2023-05-03T16:17:58;24.30;3.80
1011;DHT22;494;48.744;10.106;2023-05-03T16:20:31;23.70;4.80
1011;DHT22;494;48.744;10.106;2023-05-03T16:23:00;23.40;4.70
1011;DHT22;494;48.744;10.106;2023-05-03T16:25:29;23.40;5.10
1011;DHT22;494;48.744;10.106;2023-05-03T16:28:09;23.40;5.10
1011;DHT22;494;48.744;10.106;2023-05-03T16:30:39;23.60;4.90
1011;DHT22;494;48.744;10.106;2023-05-03T16:33:13;23.80;4.90
1011;DHT22;494;48.744;10.106;2023-05-03T16:35:44;23.90;4.50
1011;DHT22;494;48.744;10.106;2023-05-03T16:38:15;24.50;3.80
1011;DHT22;494;48.744;10.106;2023-05-03T16:40:44;24.70;3.10